Time;durP1;ratioP1;P1;durP2;ratioP2;P2;SDS_P1;SDS_P2;PMS_P1;PMS_P2;Temp;Humidity;BMP_temperature;BMP_pressure;BME280_temperature;BME280_humidity;BME280_pressure;Samples;Min_cycle;Max_cycle;Signal;HPM_P1;HPM_P2
2020/12/18 00:00:41;;;;;;;;;;;0.90;99.90;;;-0.24;94.27;96564.78;10385533;28;1748;-81
2020/12/18 00:05:43;;;;;;;;;;;0.90;99.90;;;-0.59;94.32;96573.28;10393499;28;1467;-79
2020/12/18 00:10:45;;;;;;;;;;;0.70;99.90;;;-0.59;94.95;96575.94;10387751;28;2118;-81
2020/12/18 00:15:47;;;;;;;;;;;0.60;99.90;;;-0.61;94.52;96572.66;10380379;28;1618;-82
2020/12/18 00:20:48;;;;;;;;;;;0.60;99.90;;;-0.60;95.02;96569.00;10385081;28;1791;-80
2020/12/18 00:25:50;;;;;;;;;;;0.50;99.90;;;-0.45;94.98;96571.63;10384958;28;1850;-81
2020/12/18 00:30:52;;;;;;;;;;;0.70;99.90;;;-0.36;94.49;96567.06;10387298;28;1898;-80
2020/12/18 00:35:54;;;;;;;;;;;2.70;99.90;;;-0.20;94.45;96569.47;10392428;28;1892;-81
2020/12/18 00:40:55;;;;;;;;;;;0.90;99.90;;;-0.10;94.39;96593.78;10391664;28;1916;-81
2020/12/18 00:45:57;;;;;;;;;;;1.00;99.90;;;-0.32;93.76;96581.53;10384588;28;2031;-84
2020/12/18 00:50:59;;;;;;;;;;;1.00;99.90;;;-0.41;94.01;96587.94;10377772;28;1959;-81
2020/12/18 00:56:00;;;;;;;;;;;2.10;99.90;;;-0.64;94.34;96582.75;10386153;28;2038;-83
2020/12/18 01:01:02;;;;;;;;;;;0.60;99.90;;;-0.67;94.77;96594.53;10394047;28;2012;-81
2020/12/18 01:06:04;;;;;;;;;;;1.40;99.90;;;-0.63;94.44;96585.25;10387578;28;2021;-81
2020/12/18 01:11:06;;;;;;;;;;;1.70;99.90;;;-0.70;94.29;96591.41;10392285;28;1918;-80
2020/12/18 01:16:08;;;;;;;;;;;0.40;99.90;;;-0.63;94.13;96605.56;10389718;28;1902;-82
2020/12/18 01:21:10;;;;;;;;;;;2.20;99.90;;;-0.53;94.42;96611.34;10387236;28;1795;-83
2020/12/18 01:26:11;;;;;;;;;;;0.60;99.90;;;-0.63;92.96;96597.63;10386308;28;1862;-83
2020/12/18 01:31:13;;;;;;;;;;;0.50;99.90;;;-0.66;93.40;96587.41;10395407;28;1956;-83
2020/12/18 01:36:15;;;;;;;;;;;2.00;99.90;;;-0.66;93.99;96582.94;10393269;28;1959;-81
2020/12/18 01:41:17;;;;;;;;;;;0.50;99.90;;;-0.59;94.03;96586.50;10385254;28;1881;-81
2020/12/18 01:46:20;;;;;;;;;;;0.60;99.90;;;-0.57;93.40;96581.88;10389335;28;2057;-80
2020/12/18 01:51:22;;;;;;;;;;;0.60;99.90;;;-0.57;93.22;96578.41;10388096;28;2004;-81
2020/12/18 01:56:24;;;;;;;;;;;0.60;99.90;;;-0.53;93.47;96584.94;10387467;28;1763;-82
2020/12/18 02:01:25;;;;;;;;;;;0.70;99.90;;;-0.51;92.75;96579.47;10389425;28;1693;-82
2020/12/18 02:06:27;;;;;;;;;;;3.00;99.90;;;-0.38;92.83;96582.28;10397704;28;1693;-82
2020/12/18 02:11:29;;;;;;;;;;;0.70;99.90;;;-0.39;92.93;96576.16;10387281;28;1910;-82
2020/12/18 02:16:31;;;;;;;;;;;1.80;99.90;;;-0.23;92.82;96559.28;10387728;28;2076;-81
2020/12/18 02:21:33;;;;;;;;;;;2.40;99.90;;;-0.06;92.18;96559.88;10389589;28;1918;-82
2020/12/18 02:26:34;;;;;;;;;;;1.00;99.90;;;0.19;91.42;96555.03;10390583;28;2079;-83
2020/12/18 02:31:36;;;;;;;;;;;2.60;99.90;;;0.34;90.47;96545.22;10388408;28;1904;-83
2020/12/18 02:36:38;;;;;;;;;;;1.30;99.90;;;0.38;90.48;96543.84;10389476;28;2084;-81
2020/12/18 02:41:40;;;;;;;;;;;1.40;99.90;;;0.44;89.77;96540.41;10389512;28;1759;-80
2020/12/18 02:46:41;;;;;;;;;;;1.80;99.90;;;0.42;89.54;96547.72;10394152;28;2077;-82
2020/12/18 02:51:43;;;;;;;;;;;1.50;99.90;;;0.48;89.48;96556.72;10399306;28;2037;-82
2020/12/18 02:56:45;;;;;;;;;;;3.40;99.90;;;0.31;89.35;96556.16;10408917;28;1411;-82
2020/12/18 03:01:47;;;;;;;;;;;3.40;99.90;;;0.42;89.49;96553.00;10415943;28;2163;-80
2020/12/18 03:06:48;;;;;;;;;;;2.30;99.90;;;0.45;89.12;96555.28;10419830;28;1868;-83
2020/12/18 03:11:50;;;;;;;;;;;1.50;99.90;;;0.50;89.12;96549.41;10417359;28;1978;-83
2020/12/18 03:16:52;;;;;;;;;;;1.50;99.90;;;0.28;89.50;96551.25;10398351;28;2053;-83
2020/12/18 03:21:54;;;;;;;;;;;1.50;99.90;;;0.25;89.28;96551.63;10393701;28;2083;-82
2020/12/18 03:26:56;;;;;;;;;;;1.40;99.90;;;0.23;89.71;96546.53;10383554;28;1889;-82
2020/12/18 03:31:57;;;;;;;;;;;2.30;99.90;;;0.28;89.70;96545.97;10381179;28;2152;-82
2020/12/18 03:36:59;;;;;;;;;;;2.90;99.90;;;0.23;89.76;96540.44;10402345;28;2009;-81
2020/12/18 03:42:04;;;;;;;;;;;3.00;99.90;;;0.32;89.27;96544.59;10383647;28;1886;-81
2020/12/18 03:47:06;;;;;;;;;;;2.50;99.90;;;0.42;89.32;96541.59;10387610;28;1525;-82
2020/12/18 03:52:11;;;;;;;;;;;1.40;99.90;;;0.65;88.33;96542.22;10391996;28;1918;-84
2020/12/18 03:57:16;;;;;;;;;;;1.60;99.90;;;0.71;88.14;96533.50;10390233;28;1989;-80
2020/12/18 04:02:18;;;;;;;;;;;1.70;99.90;;;0.84;87.22;96535.41;10379733;28;2152;-79
2020/12/18 04:07:21;;;;;;;;;;;2.20;99.90;;;0.80;87.83;96539.44;10384750;28;1612;-81
2020/12/18 04:12:22;;;;;;;;;;;1.90;99.90;;;1.07;87.47;96543.88;10369497;28;2031;-81
2020/12/18 04:17:24;;;;;;;;;;;2.00;99.90;;;1.27;86.84;96559.91;10376881;28;2167;-82
2020/12/18 04:22:26;;;;;;;;;;;2.20;99.90;;;1.04;86.87;96559.38;10382923;28;1542;-83
2020/12/18 04:27:28;;;;;;;;;;;2.20;99.90;;;0.94;87.70;96558.88;10389955;28;2136;-81
2020/12/18 04:32:29;;;;;;;;;;;3.40;99.90;;;0.96;87.28;96560.34;10385107;28;1956;-83
2020/12/18 04:37:31;;;;;;;;;;;2.00;99.90;;;1.02;87.28;96559.56;10396333;28;1917;-83
2020/12/18 04:42:34;;;;;;;;;;;2.00;99.90;;;0.89;87.76;96558.63;10389272;28;2215;-82
2020/12/18 04:47:36;;;;;;;;;;;3.10;99.90;;;0.82;87.67;96559.41;10401480;28;2085;-81
2020/12/18 04:52:38;;;;;;;;;;;3.20;99.90;;;0.78;87.87;96557.34;10392220;28;2013;-82
2020/12/18 04:57:40;;;;;;;;;;;1.80;99.90;;;0.56;88.52;96553.91;10390327;28;2073;-80
2020/12/18 05:02:42;;;;;;;;;;;3.90;99.90;;;0.40;89.18;96548.91;10393073;28;1892;-80
2020/12/18 05:07:44;;;;;;;;;;;3.60;99.90;;;0.21;90.02;96564.41;10397865;28;1877;-80
2020/12/18 05:12:45;;;;;;;;;;;1.40;99.90;;;0.05;90.46;96569.94;10394693;28;2140;-79
2020/12/18 05:17:47;;;;;;;;;;;2.30;99.90;;;0.01;91.05;96570.53;10391050;28;1986;-82
2020/12/18 05:22:49;;;;;;;;;;;2.40;99.90;;;-0.11;91.04;96568.38;10375717;28;2084;-81
2020/12/18 05:27:51;;;;;;;;;;;1.10;99.90;;;-0.18;91.44;96567.47;10374072;28;1567;-82
2020/12/18 05:32:53;;;;;;;;;;;2.50;99.90;;;-0.25;91.55;96577.16;10378570;28;2115;-82
2020/12/18 05:37:54;;;;;;;;;;;0.90;99.90;;;-0.42;92.08;96581.03;10380139;28;2016;-82
2020/12/18 05:42:56;;;;;;;;;;;0.90;99.90;;;-0.37;91.94;96579.47;10381400;28;1355;-82
2020/12/18 05:47:58;;;;;;;;;;;3.30;99.90;;;-0.51;92.32;96582.94;10380281;28;2025;-82
2020/12/18 05:53:02;;;;;;;;;;;1.50;99.90;;;-0.46;92.09;96590.31;10372208;28;1910;-82
2020/12/18 05:58:04;;;;;;;;;;;0.70;99.90;;;-0.36;91.79;96588.22;10381387;28;2124;-83
2020/12/18 06:03:06;;;;;;;;;;;0.90;99.90;;;-0.32;92.06;96584.16;10375434;28;1864;-82
2020/12/18 06:08:08;;;;;;;;;;;2.30;99.90;;;-0.35;91.73;96589.84;10374930;28;1898;-79
2020/12/18 06:13:10;;;;;;;;;;;1.10;99.90;;;-0.43;91.42;96592.59;10391000;28;1915;-83
2020/12/18 06:18:11;;;;;;;;;;;2.20;99.90;;;-0.55;91.72;96587.78;10389416;28;1900;-82
2020/12/18 06:23:13;;;;;;;;;;;1.40;99.90;;;-0.64;91.94;96588.84;10407379;28;1358;-83
2020/12/18 06:28:15;;;;;;;;;;;0.60;99.90;;;-0.68;92.03;96590.25;10415580;28;2122;-82
2020/12/18 06:33:18;;;;;;;;;;;1.80;99.90;;;-0.64;92.17;96588.84;10417519;28;1895;-83
2020/12/18 06:38:19;;;;;;;;;;;0.50;99.90;;;-0.57;92.43;96597.72;10389070;28;1917;-80
2020/12/18 06:43:21;;;;;;;;;;;0.50;99.90;;;-0.54;92.48;96593.88;10384845;28;2148;-82
2020/12/18 06:48:23;;;;;;;;;;;0.60;99.90;;;-0.53;92.18;96598.16;10390078;28;1869;-82
2020/12/18 06:53:25;;;;;;;;;;;1.80;99.90;;;-0.52;92.46;96602.41;10381230;28;2021;-82
2020/12/18 06:58:28;;;;;;;;;;;1.50;99.90;;;-0.55;92.76;96600.97;10394555;28;2033;-81
2020/12/18 07:03:30;;;;;;;;;;;2.40;99.90;;;-0.52;92.66;96606.88;10427066;28;1861;-82
2020/12/18 07:08:33;;;;;;;;;;;0.60;99.90;;;-0.47;92.71;96610.63;10409475;28;2028;-82
2020/12/18 07:13:34;;;;;;;;;;;0.70;99.90;;;-0.53;92.51;96614.00;10414361;28;1887;-82
2020/12/18 07:18:36;;;;;;;;;;;0.60;99.90;;;-0.52;92.55;96623.56;10415223;28;2088;-80
2020/12/18 07:23:38;;;;;;;;;;;1.70;99.90;;;-0.46;92.50;96616.72;10416458;28;2337;-81
2020/12/18 07:28:40;;;;;;;;;;;0.70;99.90;;;-0.55;92.87;96614.19;10385284;28;3360;-80
2020/12/18 07:33:41;;;;;;;;;;;0.70;99.90;;;-0.41;92.28;96614.34;10364670;28;3213;-79
2020/12/18 07:38:43;;;;;;;;;;;0.70;99.90;;;-0.43;91.64;96613.72;10376836;28;2492;-81
2020/12/18 07:43:45;;;;;;;;;;;1.60;99.90;;;-0.47;92.46;96615.91;10372974;28;2303;-81
2020/12/18 07:48:47;;;;;;;;;;;0.70;99.90;;;-0.35;92.45;96609.16;10391131;28;2048;-81
2020/12/18 07:53:48;;;;;;;;;;;0.70;99.90;;;-0.22;91.82;96602.38;10393453;28;2447;-81
2020/12/18 07:58:50;;;;;;;;;;;0.90;99.90;;;-0.14;91.16;96600.44;10402805;28;2512;-81
2020/12/18 08:03:55;;;;;;;;;;;0.90;99.90;;;0.05;90.97;96598.22;10393095;28;2063;-82
2020/12/18 08:08:57;;;;;;;;;;;1.10;99.90;;;0.20;90.85;96594.53;10394327;28;2023;-81
2020/12/18 08:13:59;;;;;;;;;;;1.20;99.90;;;0.34;89.79;96600.75;10395982;28;2140;-82
2020/12/18 08:19:01;;;;;;;;;;;1.40;99.90;;;0.44;89.80;96597.78;10409671;28;2052;-81
2020/12/18 08:24:03;;;;;;;;;;;1.50;99.90;;;0.63;89.26;96596.31;10401905;28;1983;-80
2020/12/18 08:29:05;;;;;;;;;;;1.60;99.90;;;0.73;88.81;96591.50;10398059;28;1885;-83
2020/12/18 08:34:07;;;;;;;;;;;1.80;99.90;;;0.89;88.66;96591.25;10398659;28;2013;-83
2020/12/18 08:39:10;;;;;;;;;;;1.90;99.90;;;1.01;88.36;96584.38;10393548;28;2038;-81
2020/12/18 08:44:13;;;;;;;;;;;2.00;99.90;;;1.13;88.57;96576.72;10397505;28;1974;-83
2020/12/18 08:49:15;;;;;;;;;;;2.10;99.90;;;1.23;88.25;96581.69;10398672;28;2273;-83
2020/12/18 08:54:17;;;;;;;;;;;3.30;99.90;;;1.36;87.99;96571.16;10392940;28;1979;-84
2020/12/18 08:59:19;;;;;;;;;;;3.50;99.90;;;1.56;87.41;96576.53;10388520;28;1957;-82
2020/12/18 09:04:21;;;;;;;;;;;2.60;99.90;;;1.70;86.86;96572.09;10393393;28;1994;-83
2020/12/18 09:09:23;;;;;;;;;;;2.70;99.90;;;1.82;86.90;96575.81;10382266;28;1970;-79
2020/12/18 09:14:25;;;;;;;;;;;2.80;99.90;;;1.94;86.57;96578.72;10399729;28;1918;-78
2020/12/18 09:19:26;;;;;;;;;;;4.00;99.90;;;2.02;85.88;96579.34;10392056;28;1550;-78
2020/12/18 09:24:28;;;;;;;;;;;3.10;99.90;;;2.17;85.41;96573.91;10386302;28;1385;-79
2020/12/18 09:29:32;;;;;;;;;;;3.20;99.90;;;2.39;84.08;96569.22;10406984;28;1979;-81
2020/12/18 09:34:33;;;;;;;;;;;3.30;99.90;;;2.50;83.58;96568.63;10383979;28;2067;-81
2020/12/18 09:39:35;;;;;;;;;;;3.50;99.90;;;2.75;82.13;96568.03;10395135;28;2026;-79
2020/12/18 09:44:37;;;;;;;;;;;3.70;99.90;;;2.76;82.16;96567.00;10395334;28;1583;-80
2020/12/18 09:49:39;;;;;;;;;;;3.80;99.90;;;2.81;81.93;96556.59;10401660;28;1882;-82
2020/12/18 09:54:40;;;;;;;;;;;5.50;99.90;;;2.94;80.94;96553.91;10391113;28;1898;-82
2020/12/18 09:59:42;;;;;;;;;;;3.90;99.90;;;2.98;81.40;96555.13;10381958;28;2070;-82
2020/12/18 10:04:43;;;;;;;;;;;3.90;99.90;;;3.04;81.13;96548.97;10382086;28;2052;-80
2020/12/18 10:09:45;;;;;;;;;;;4.10;99.90;;;3.20;80.86;96550.41;10381307;28;2211;-80
2020/12/18 10:14:47;;;;;;;;;;;4.20;99.90;;;3.25;80.18;96554.06;10383539;28;2044;-82
2020/12/18 10:19:51;;;;;;;;;;;4.30;99.90;;;3.35;79.85;96539.50;10376427;28;1904;-82
2020/12/18 10:24:53;;;;;;;;;;;4.30;99.90;;;3.44;78.69;96538.28;10382693;28;2190;-82
2020/12/18 10:29:55;;;;;;;;;;;4.40;99.90;;;3.46;78.67;96536.22;10380055;28;1957;-84
2020/12/18 10:34:56;;;;;;;;;;;4.50;99.90;;;3.68;79.11;96534.88;10379900;28;2022;-85
2020/12/18 10:39:59;;;;;;;;;;;5.60;99.90;;;3.77;78.14;96528.31;10390004;28;2095;-85
2020/12/18 10:45:01;;;;;;;;;;;6.50;99.90;;;3.92;77.73;96527.22;10385579;28;2410;-83
2020/12/18 10:50:03;;;;;;;;;;;6.00;99.90;;;4.04;77.39;96522.84;10384307;28;1955;-85
2020/12/18 10:55:04;;;;;;;;;;;6.50;99.90;;;4.08;77.58;96508.09;10386166;28;3944;-85
2020/12/18 11:00:06;;;;;;;;;;;5.90;99.90;;;4.21;77.20;96517.84;10386655;28;1973;-83
2020/12/18 11:05:08;;;;;;;;;;;5.20;99.90;;;4.20;77.48;96511.69;10380366;28;1888;-85
2020/12/18 11:10:09;;;;;;;;;;;6.30;99.90;;;4.33;76.75;96506.28;10386338;28;1991;-83
2020/12/18 11:15:11;;;;;;;;;;;5.30;99.90;;;4.43;76.35;96502.31;10386534;28;1976;-84
2020/12/18 11:20:14;;;;;;;;;;;5.40;99.90;;;4.46;76.10;96499.22;10386665;28;2006;-85
2020/12/18 11:25:18;;;;;;;;;;;5.50;99.90;;;4.71;76.69;96491.19;10395195;28;1626;-86
2020/12/18 11:30:21;;;;;;;;;;;5.60;99.90;;;4.73;76.77;96486.50;10385145;28;2135;-84
2020/12/18 11:35:24;;;;;;;;;;;5.80;99.90;;;4.76;77.50;96480.72;10382147;28;1890;-83
2020/12/18 11:46:17;;;;;;;;;;;5.90;99.90;;;4.73;78.04;96475.84;10369438;28;2016;-86
2020/12/18 11:51:28;;;;;;;;;;;6.90;99.90;;;4.68;78.33;96475.69;10396401;28;2153;-86
2020/12/18 11:56:38;;;;;;;;;;;5.80;99.90;;;4.59;79.04;96472.50;10382658;28;1994;-83
2020/12/18 12:01:40;;;;;;;;;;;5.90;99.90;;;4.54;79.69;96469.66;10389652;28;1847;-82
2020/12/18 12:06:51;;;;;;;;;;;5.70;99.90;;;4.59;79.65;96462.66;10382418;28;1936;-80
2020/12/18 12:11:53;;;;;;;;;;;7.10;99.90;;;4.68;79.56;96465.03;10379762;28;1906;-83
2020/12/18 12:16:55;;;;;;;;;;;6.90;99.90;;;4.73;79.62;96457.19;10382973;28;1966;-82
2020/12/18 12:21:59;;;;;;;;;;;5.70;99.90;;;4.73;79.23;96463.34;10385357;28;2093;-80
2020/12/18 12:27:02;;;;;;;;;;;5.80;99.90;;;4.82;79.39;96455.88;10393484;28;2086;-80
2020/12/18 12:32:04;;;;;;;;;;;5.90;99.90;;;4.94;78.67;96455.94;10386124;28;1997;-80
2020/12/18 12:37:06;;;;;;;;;;;6.90;99.90;;;5.03;78.11;96457.31;10396701;28;1932;-80
2020/12/18 12:42:08;;;;;;;;;;;7.20;99.90;;;5.01;78.12;96448.69;10390521;28;2161;-81
2020/12/18 12:47:11;;;;;;;;;;;6.90;99.90;;;4.95;79.00;96438.94;10384656;28;1931;-81
2020/12/18 12:52:14;;;;;;;;;;;7.60;99.90;;;4.89;78.87;96441.44;10392738;28;1993;-81
2020/12/18 12:57:16;;;;;;;;;;;6.00;99.90;;;4.76;79.67;96438.91;10389454;28;1978;-82
2020/12/18 13:02:18;;;;;;;;;;;6.00;99.90;;;4.64;80.16;96446.00;10388181;28;1993;-79
2020/12/18 13:07:21;;;;;;;;;;;5.80;99.90;;;4.54;80.63;96437.72;10380368;28;1876;-80
2020/12/18 13:12:23;;;;;;;;;;;5.70;99.90;;;4.57;80.77;96434.59;10380921;28;1916;-80
2020/12/18 13:17:24;;;;;;;;;;;5.70;99.90;;;4.49;81.25;96435.69;10387408;28;2123;-82
2020/12/18 13:22:26;;;;;;;;;;;5.60;99.90;;;4.54;80.76;96427.88;10382504;28;2004;-82
2020/12/18 13:27:28;;;;;;;;;;;5.60;99.90;;;4.60;79.89;96423.53;10389872;28;2065;-81
2020/12/18 13:32:29;;;;;;;;;;;7.20;99.90;;;4.59;80.35;96422.72;10380958;28;1994;-81
2020/12/18 13:37:31;;;;;;;;;;;6.70;99.90;;;4.66;78.85;96429.81;10384308;28;2018;-81
2020/12/18 13:42:33;;;;;;;;;;;6.70;99.90;;;4.63;78.30;96431.06;10383947;28;2217;-81
2020/12/18 13:47:35;;;;;;;;;;;6.60;99.90;;;4.56;79.68;96427.63;10384946;28;1590;-80
2020/12/18 13:52:36;;;;;;;;;;;5.70;99.90;;;4.37;81.19;96442.75;10376237;28;2005;-80
2020/12/18 13:57:38;;;;;;;;;;;5.60;99.90;;;4.29;81.94;96446.53;10382416;28;1545;-80
2020/12/18 14:02:40;;;;;;;;;;;6.50;99.90;;;4.15;82.74;96439.69;10386883;28;2119;-81
2020/12/18 14:07:42;;;;;;;;;;;6.20;99.90;;;4.07;82.96;96450.56;10383253;28;1943;-80
2020/12/18 14:12:44;;;;;;;;;;;6.60;99.90;;;4.01;83.93;96444.28;10381405;28;1973;-82
2020/12/18 14:17:45;;;;;;;;;;;6.70;99.90;;;3.88;84.36;96448.84;10384145;28;2011;-81
2020/12/18 14:22:47;;;;;;;;;;;5.00;99.90;;;3.68;85.74;96448.97;10388138;28;1946;-79
2020/12/18 14:27:49;;;;;;;;;;;4.90;99.90;;;3.59;86.11;96451.09;10384962;28;1910;-80
2020/12/18 14:32:51;;;;;;;;;;;5.60;99.90;;;3.45;87.54;96444.22;10379631;28;2017;-81
2020/12/18 14:37:56;;;;;;;;;;;6.40;99.90;;;3.31;87.63;96442.63;10387043;28;2005;-79
2020/12/18 14:43:01;;;;;;;;;;;4.60;99.90;;;3.27;88.40;96441.44;10370421;28;1930;-80
2020/12/18 14:48:04;;;;;;;;;;;4.50;99.90;;;3.23;88.54;96441.84;10374512;28;1508;-78
2020/12/18 14:53:07;;;;;;;;;;;6.20;99.90;;;3.18;88.25;96433.72;10374638;28;1884;-79
2020/12/18 14:58:10;;;;;;;;;;;5.80;99.90;;;3.11;88.69;96432.91;10396034;28;1694;-78
2020/12/18 15:09:09;;;;;;;;;;;;;;;;;;;;;
2020/12/18 15:25:25;;;;;;;;;;;3.70;99.90;;;2.24;91.26;96425.34;10349675;28;1985;-80
2020/12/18 15:36:02;;;;;;;;;;;3.20;99.90;;;1.77;91.75;96435.91;10366988;28;1683;-80
2020/12/18 15:41:30;;;;;;;;;;;4.40;99.90;;;1.60;92.75;96443.47;10356635;28;2107;-81
2020/12/18 15:46:40;;;;;;;;;;;4.10;99.90;;;1.32;93.36;96453.34;10358610;28;1788;-81
2020/12/18 15:51:51;;;;;;;;;;;4.00;99.90;;;1.16;93.88;96448.41;10386182;22;1991;-80
2020/12/18 15:56:53;;;;;;;;;;;2.40;99.90;;;1.09;93.89;96443.09;10387146;28;2000;-79
2020/12/18 16:01:58;;;;;;;;;;;2.30;99.90;;;0.97;94.52;96448.13;10371776;28;2015;-80
2020/12/18 16:06:59;;;;;;;;;;;2.20;99.90;;;0.88;94.77;96454.59;10373706;28;1799;-81
2020/12/18 16:12:01;;;;;;;;;;;2.90;99.90;;;0.77;95.09;96445.41;10347121;28;2011;-80
2020/12/18 16:17:03;;;;;;;;;;;3.20;99.90;;;0.74;95.14;96444.94;10346470;28;1973;-78
2020/12/18 16:22:05;;;;;;;;;;;1.90;99.90;;;0.64;95.49;96445.31;10344974;28;1881;-81
2020/12/18 16:27:07;;;;;;;;;;;3.50;99.90;;;0.64;95.39;96429.44;10337956;28;2225;-82
2020/12/18 16:32:09;;;;;;;;;;;1.80;99.90;;;0.54;95.14;96413.91;10342593;28;2330;-80
2020/12/18 16:37:11;;;;;;;;;;;3.70;99.90;;;0.52;95.50;96421.22;10350180;28;2329;-80
2020/12/18 16:42:13;;;;;;;;;;;1.70;99.90;;;0.51;95.62;96419.59;10357070;28;2352;-80
2020/12/18 16:47:15;;;;;;;;;;;1.70;99.90;;;0.51;95.53;96419.59;10353466;28;2310;-78
2020/12/18 16:52:16;;;;;;;;;;;2.90;99.90;;;0.47;95.48;96407.78;10348100;28;1973;-79
2020/12/18 16:57:22;;;;;;;;;;;1.70;99.90;;;0.46;95.44;96397.38;10337814;28;1622;-82
2020/12/18 17:02:25;;;;;;;;;;;2.90;99.90;;;0.36;95.18;96396.91;10349705;28;1631;-81
2020/12/18 17:07:27;;;;;;;;;;;1.60;99.90;;;0.24;95.38;96391.34;10360573;28;2304;-81
2020/12/18 17:12:29;;;;;;;;;;;1.50;99.90;;;0.12;95.52;96382.31;10338575;28;1981;-81
2020/12/18 17:17:30;;;;;;;;;;;1.30;99.90;;;0.11;95.55;96396.53;10346233;28;1624;-82
2020/12/18 17:22:32;;;;;;;;;;;1.30;99.90;;;-0.03;95.84;96380.59;10341356;28;1391;-82
2020/12/18 17:27:34;;;;;;;;;;;1.20;99.90;;;-0.10;95.46;96379.72;10338493;28;1600;-81
2020/12/18 17:32:36;;;;;;;;;;;3.30;99.90;;;-0.15;95.89;96376.84;10351410;28;1941;-82
2020/12/18 17:37:38;;;;;;;;;;;2.00;99.90;;;-0.20;95.90;96389.78;10353523;28;1654;-82
2020/12/18 17:42:46;;;;;;;;;;;2.80;99.90;;;-0.30;95.84;96382.22;10401884;22;1906;-84
2020/12/18 17:48:04;;;;;;;;;;;0.80;99.90;;;-0.36;95.93;96387.44;10351036;28;1875;-83
2020/12/18 17:53:34;;;;;;;;;;;0.80;99.90;;;-0.49;95.97;96374.94;10338240;28;2014;-80
2020/12/18 17:59:04;;;;;;;;;;;0.80;99.90;;;-0.54;95.72;96372.03;10348465;28;1591;-82
2020/12/18 18:04:30;;;;;;;;;;;0.60;99.90;;;-0.55;95.69;96375.69;10500107;23;1887;-81
2020/12/18 18:10:20;;;;;;;;;;;0.60;99.90;;;-0.56;96.03;96374.06;10342330;28;1218;-83
2020/12/18 18:15:36;;;;;;;;;;;0.50;99.90;;;-0.56;95.59;96364.31;10316964;28;2412;-84
2020/12/18 19:06:34;;;;;;;;;;;0.20;99.90;;;-1.07;95.71;96345.13;10148321;29;1468;-84
2020/12/18 19:11:56;;;;;;;;;;;0.60;99.90;;;-1.05;95.89;96345.75;10141936;29;1891;-83
2020/12/18 19:23:10;;;;;;;;;;;0.00;99.90;;;-1.07;95.76;96344.31;10212652;28;1251;-83
2020/12/18 19:28:26;;;;;;;;;;;-0.10;99.90;;;-1.11;95.91;96349.94;10222339;28;1514;-81
2020/12/18 19:56:13;;;;;;;;;;;-0.10;99.90;;;-1.14;95.03;96354.78;10014151;29;1884;-83
2020/12/18 20:01:15;;;;;;;;;;;-0.10;99.90;;;-1.17;95.67;96355.97;10228862;29;2073;-85
2020/12/18 20:06:24;;;;;;;;;;;0.00;99.90;;;-1.24;95.03;96359.53;10235998;29;1697;-83
2020/12/18 20:11:28;;;;;;;;;;;1.30;99.90;;;-1.29;95.77;96362.72;10225375;29;2005;-84
2020/12/18 20:16:49;;;;;;;;;;;1.00;99.90;;;-1.36;96.00;96356.56;10312376;28;1187;-82
2020/12/18 20:21:54;;;;;;;;;;;0.70;99.90;;;-1.37;95.78;96360.19;10316406;28;1538;-82
2020/12/18 20:27:02;;;;;;;;;;;0.90;99.90;;;-1.45;95.46;96357.66;10308542;28;2521;-84
2020/12/18 20:32:04;;;;;;;;;;;0.50;99.90;;;-1.50;96.35;96357.41;10303729;28;1906;-84
2020/12/18 20:37:14;;;;;;;;;;;0.80;99.90;;;-1.47;96.21;96362.28;10318610;28;2930;-82
2020/12/18 20:42:15;;;;;;;;;;;1.30;99.90;;;-1.51;96.70;96353.13;10324811;28;1579;-80
2020/12/18 20:47:17;;;;;;;;;;;-0.40;99.90;;;-1.44;96.08;96359.31;10316255;28;1870;-80
2020/12/18 20:52:19;;;;;;;;;;;-0.30;99.90;;;-1.45;95.97;96355.03;10309827;28;2212;-82
2020/12/18 20:57:21;;;;;;;;;;;-0.30;99.90;;;-1.51;96.35;96353.94;10319625;28;1671;-82
2020/12/18 21:02:23;;;;;;;;;;;-0.30;99.90;;;-1.50;95.99;96357.41;10340455;28;1501;-82
2020/12/18 21:07:26;;;;;;;;;;;-0.40;99.90;;;-1.56;96.21;96347.59;10323968;28;1657;-82
2020/12/18 21:12:28;;;;;;;;;;;-0.40;99.90;;;-1.59;96.16;96351.41;10331082;28;1970;-82
2020/12/18 21:17:30;;;;;;;;;;;-0.30;99.90;;;-1.72;96.47;96354.69;10301576;28;1082;-80
2020/12/18 21:22:31;;;;;;;;;;;-0.50;99.90;;;-1.72;96.56;96351.22;10302099;28;1470;-80
2020/12/18 21:27:33;;;;;;;;;;;-0.60;99.90;;;-1.75;96.37;96347.13;10321615;28;1538;-82
2020/12/18 21:32:35;;;;;;;;;;;-0.60;99.90;;;-1.72;96.64;96345.94;10304366;28;2238;-82
2020/12/18 21:37:37;;;;;;;;;;;-0.10;99.90;;;-1.63;96.68;96350.97;10308157;28;2099;-80
2020/12/18 21:42:38;;;;;;;;;;;0.90;99.90;;;-1.75;96.52;96347.13;10314670;28;2311;-79
2020/12/18 21:47:40;;;;;;;;;;;-0.60;99.90;;;-1.69;97.10;96338.50;10321832;28;2263;-82
2020/12/18 21:52:42;;;;;;;;;;;-0.60;99.90;;;-1.82;96.69;96330.44;10321311;28;1982;-81
2020/12/18 21:57:43;;;;;;;;;;;-0.70;99.90;;;-1.79;97.43;96324.78;10325771;28;1982;-83
2020/12/18 22:02:45;;;;;;;;;;;0.70;99.90;;;-1.73;96.75;96318.78;10316597;28;2013;-83
2020/12/18 22:07:47;;;;;;;;;;;-0.60;99.90;;;-1.70;96.74;96323.69;10310690;28;1982;-83
2020/12/18 22:12:49;;;;;;;;;;;-0.60;99.90;;;-1.80;96.26;96320.50;10312055;28;1983;-83
2020/12/18 22:17:50;;;;;;;;;;;-0.60;99.90;;;-1.84;97.07;96315.81;10315988;28;2316;-82
2020/12/18 22:22:52;;;;;;;;;;;-0.70;99.90;;;-1.85;96.73;96320.22;10335695;28;2408;-82
2020/12/18 22:27:54;;;;;;;;;;;-0.80;99.90;;;-1.80;96.62;96317.88;10324069;28;2089;-82
2020/12/18 22:32:56;;;;;;;;;;;-0.70;99.90;;;-1.76;97.32;96318.34;10321217;28;1979;-81
2020/12/18 22:37:58;;;;;;;;;;;-0.70;99.90;;;-1.81;96.64;96313.59;10343584;28;2153;-81
2020/12/18 22:43:00;;;;;;;;;;;-0.60;99.90;;;-1.74;96.90;96311.88;10336521;28;2002;-81
2020/12/18 22:48:02;;;;;;;;;;;-0.20;99.90;;;-1.68;96.36;96316.41;10327347;28;2052;-80
2020/12/18 22:53:04;;;;;;;;;;;-0.60;99.90;;;-1.74;96.50;96311.06;10315478;28;1918;-81
2020/12/18 22:58:06;;;;;;;;;;;-0.60;99.90;;;-1.81;96.32;96305.69;10313289;28;2039;-82
2020/12/18 23:03:07;;;;;;;;;;;-0.70;99.90;;;-1.71;95.72;96310.72;10309657;28;2115;-81
2020/12/18 23:08:09;;;;;;;;;;;-0.60;99.90;;;-1.79;96.26;96301.06;10309148;28;1953;-80
2020/12/18 23:13:11;;;;;;;;;;;0.40;99.90;;;-1.71;94.79;96308.88;10310534;28;1982;-82
2020/12/18 23:18:12;;;;;;;;;;;-0.60;99.90;;;-1.82;95.76;96301.44;10307159;28;1957;-81
2020/12/18 23:23:14;;;;;;;;;;;1.10;99.90;;;-1.77;95.81;96301.72;10308531;28;1908;-83
2020/12/18 23:28:16;;;;;;;;;;;0.50;99.90;;;-1.70;95.76;96307.06;10315892;28;2028;-82
2020/12/18 23:33:18;;;;;;;;;;;-0.60;99.90;;;-1.85;95.03;96299.16;10312978;28;1963;-80
2020/12/18 23:38:19;;;;;;;;;;;0.90;99.90;;;-1.93;95.78;96291.34;10312562;28;1976;-81
2020/12/18 23:43:21;;;;;;;;;;;-0.80;99.90;;;-2.05;95.94;96283.09;10314521;28;1896;-82
2020/12/18 23:48:23;;;;;;;;;;;0.40;99.90;;;-1.90;96.09;96288.38;10315354;28;1981;-82
2020/12/18 23:53:25;;;;;;;;;;;-0.80;99.90;;;-1.81;96.05;96300.44;10315416;28;1906;-83
2020/12/18 23:58:27;;;;;;;;;;;-0.80;99.90;;;-1.98;95.45;96278.72;10323080;28;1952;-83
